Warning: Javascript must be enabled to use all the features on this page!


Page Loading - Please Wait...

* We've detected you're using a mobile device. Find our Next Generation Station Page here.
Click to hideNews Bulletins

Peak Streamflow for the Nation

USGS 06452000 WHITE R NEAR OACOMA,SD

Lyman County, South Dakota
Hydrologic Unit Code 10140204
Latitude  43°44'54", Longitude  99°33'22" NAD27
Drainage area 9,915  square miles
Contributing drainage area 9,855  square miles
Gage datum 1,378.4 feet above NAVD88
Output formats
Table
Graph
Tab-separated file
peakfq (watstore) format
Reselect output format
Water
Year
Date Gage
Height
(feet)
Stream-
flow
(cfs)
1929 1929-03-10 6.603 10,800
1930 1930-05-13 6.853 12,100
1931 1930-10-06 5.023 5,470
1932 1932-05-08 6.803 12,100
1933 1933-09-01 5.303 6,580
1934 1934-06-20 5.003 5,680
1935 1935-06-02 7.553 15,800
1936 1936-03-05   7,210
1937 1937-06-19   8,500
1938 1938-05-20   9,540
1939 1939-05-28   6,160
1940 1940-05-01   3,140
1941 1941-06-12 6.503 10,800
1942 1942-05-08 10.703 35,300
1943 1943-06-01 4.683 6,980
1944 1944-06-14   14,600
1945 1945-03-12 5.051,3 6,200
1946 1946-06-20 4.873 5,530
1947 1947-06-25   11,400
1948 1948-06-17 6.053 12,200
1949 1949-03-08   10,200
1950 1950-03-31 17.601,3 20,000
1951 1951-06-21 7.003 8,100
1952 1952-03-30 15.403 51,900
1953 1953-03-12 11.281,3 29,900
1954 1954-05-25 5.043 4,990
1955 1955-09-22   10,200
1956 1956-03-09 7.921,3 5,500
1957 1957-05-27 7.993 12,800
1958 1958-04-08 6.493 6,530
1959 1959-05-07 6.653 9,020
1960 1960-03-27 11.432,3 23,400
1961 1961-06-16 6.46 6,050
1962 1962-07-15 11.672 23,200
1963 1963-06-18 8.02 9,850
1964 1964-06-20 8.43 10,600
1965 1965-05-20 8.69 13,100
1966 1966-03-13 14.241 33,400
1967 1967-06-17 10.752 19,000
1968 1968-06-10 12.73 27,000
1969 1969-03-23 7.482 8,100
1970 1970-04-26 8.40 10,600
1971 1971-04-21 9.352 14,300
1972 1972-07-29 7.77 8,360
1973 1973-05-29 7.93 6,960
1974 1974-04-23 6.55 3,770
1975 1975-06-21 8.72 10,200
1976 1976-05-26 7.26 4,980
1977 1977-04-14 9.792 12,100
1978 1978-03-14 23.591 25,000
1979 1979-06-26 9.522 11,800
1980 1980-08-19 5.812 1,750
1981 1981-08-08 7.83 5,800
1982 1982-05-22 11.962 20,600
1983 1983-05-04 12.57 20,900
1984 1984-06-14 8.962 6,290
1985 1985-03-15 8.74 5,780
1986 1986-05-09 14.642 34,600
1987 1987-03-22 10.912 13,700
1988 1988-05-26 12.08 18,000
1989 1989-09-23 9.522 7,150
1990 1990-06-18 10.42 7,980
1991 1991-06-05 14.10 30,200
1992 1992-02-17 9.591 7,100
1993 1993-03-08 17.141 17,0002
1994 1994-03-04 24.70 25,000
1995 1995-05-29 14.65 22,100
1996 1996-05-29 15.742 24,800
1997 1997-06-05 18.582 33,700
1998 1998-06-18 12.67 12,400
1999 1999-05-10 21.10 42,400
2000 2000-04-27 12.81 8,310
2001 2001-04-26 14.982 14,500
2002 2002-05-05 10.58 4,600
2003 2003-03-21 10.98 4,820
2004 2004-06-11 12.91 6,690
2005 2005-05-14 13.68 11,700
2006 2006-03-31 10.80 5,000
2007 2007-05-08 11.90 7,250
2008 2008-06-05 19.39 33,800
2009 2009-02-11 20.031 25,0002
2010 2010-03-11 20.812 33,000
2011 2011-03-16 25.021 27,0002
2012 2012-04-20 10.38 3,470
2013 2013-06-24 12.03 5,130
2014 2013-10-17 14.432 12,200
2015 2015-06-07 15.56 11,600
2016 2016-04-30 14.54 11,700
2017 2017-04-13 12.932 7,130
2018 2018-06-21 15.62 11,100
2019 2019-03-25 20.452 39,300
2020 2020-05-19 12.462 4,370
2021 2021-03-22 11.53 3,200
?
  Peak Gage-Height Qualification Codes.
?
  Peak Streamflow Qualification Codes.